Estación Meteorológica Peña el Pijo (Robertgarden) [ 09/23/17 05:47:50 CEST ]

Fecha Hora Presion(HPa) Temp (°C) Humedad % Rocio (°C) Viento ( m/s) Direccion Lluvia 1Hora(mm) Lluvia 24H(mm) LLuvia Total(mm)
2017-Jul-15 01:01:18 1013.300 20.6 56 11.7         1437.96
2017-Jul-15 02:01:10 1013.200 18.8 55 9.6         1437.96
2017-Jul-15 03:01:26 1013.100 17.4 57 8.8         1437.96
2017-Jul-15 04:01:22 1012.800 16.1 61 8.6         1437.96
2017-Jul-15 05:01:26 1012.800 15.2 66 8.9         1437.96
2017-Jul-15 06:01:27 1013.100 18.3 78 14.4         1437.96
2017-Jul-15 07:01:49 1013.600 18.5 80 15.0         1437.96
2017-Jul-15 08:01:53 1013.600 18.4 80 14.9         1437.96
2017-Jul-15 09:01:49 1014.000 19.4 80 15.9         1437.96
2017-Jul-15 10:02:09 1013.600 24.3 66 17.5         1437.96
2017-Jul-15 11:01:42 1013.500 28.6 51 17.5         1437.96
2017-Jul-15 12:01:52 1013.300 31.9 42 17.3         1437.96
2017-Jul-15 13:01:47 1013.000 34.4 37 17.5 1.3 SE     1437.96
2017-Jul-15 14:01:58 1012.900 35.4 35 17.5         1437.96
2017-Jul-15 15:01:47 1012.900 36.9 31 17.0         1437.96
2017-Jul-15 16:01:40 1012.300 39.3 28 17.3         1437.96
2017-Jul-15 17:01:55 1012.000 35.9 28 14.4         1437.96
2017-Jul-15 18:01:46 1011.600 35.9 30 15.6 1.9 S     1437.96
2017-Jul-15 19:02:04 1011.700 34.9 32 15.7         1437.96
2017-Jul-15 20:01:43 1012.200 32.1 39 16.3         1437.96
2017-Jul-15 21:01:54 1013.300 27.3 51 16.3         1437.96
2017-Jul-15 22:01:52 1014.100 24.4 59 15.9         1437.96
2017-Jul-15 23:01:53 1014.600 22.2 66 15.5         1437.96

Temperatura Máxima:39°    Temperatura Mínima:15°
Presión Máxima:1014.600 Hpa    Presión Mínima:1011.600 Hpa


Volver